sensor_id;sensor_type;location;lat;lon;timestamp;P1;durP1;ratioP1;P2;durP2;ratioP2
11447;SDS011;43755;49.736;8.734;2023-02-20T00:01:16;8.52;;;5.03;;
11447;SDS011;43755;49.736;8.734;2023-02-20T00:03:19;7.38;;;4.18;;
11447;SDS011;43755;49.736;8.734;2023-02-20T00:05:20;6.35;;;4.78;;
11447;SDS011;43755;49.736;8.734;2023-02-20T00:07:22;6.45;;;5.57;;
11447;SDS011;43755;49.736;8.734;2023-02-20T00:09:23;10.60;;;5.22;;
11447;SDS011;43755;49.736;8.734;2023-02-20T00:11:25;7.60;;;5.35;;
11447;SDS011;43755;49.736;8.734;2023-02-20T00:13:26;7.43;;;5.30;;
11447;SDS011;43755;49.736;8.734;2023-02-20T00:15:29;7.93;;;5.30;;
11447;SDS011;43755;49.736;8.734;2023-02-20T00:17:30;6.63;;;5.35;;
11447;SDS011;43755;49.736;8.734;2023-02-20T00:19:32;5.80;;;5.00;;
11447;SDS011;43755;49.736;8.734;2023-02-20T00:21:33;7.68;;;5.38;;
11447;SDS011;43755;49.736;8.734;2023-02-20T00:23:35;7.45;;;5.47;;
11447;SDS011;43755;49.736;8.734;2023-02-20T00:25:36;6.95;;;5.30;;
11447;SDS011;43755;49.736;8.734;2023-02-20T00:27:38;7.90;;;5.60;;
11447;SDS011;43755;49.736;8.734;2023-02-20T00:29:39;7.90;;;5.18;;
11447;SDS011;43755;49.736;8.734;2023-02-20T00:31:42;8.38;;;5.55;;
11447;SDS011;43755;49.736;8.734;2023-02-20T00:33:44;7.40;;;5.45;;
11447;SDS011;43755;49.736;8.734;2023-02-20T00:35:45;8.20;;;5.70;;
11447;SDS011;43755;49.736;8.734;2023-02-20T00:37:47;8.70;;;5.68;;
11447;SDS011;43755;49.736;8.734;2023-02-20T00:39:49;7.15;;;5.55;;
11447;SDS011;43755;49.736;8.734;2023-02-20T00:41:50;9.77;;;5.93;;
11447;SDS011;43755;49.736;8.734;2023-02-20T00:43:52;6.97;;;5.70;;
11447;SDS011;43755;49.736;8.734;2023-02-20T00:45:53;8.90;;;5.68;;
11447;SDS011;43755;49.736;8.734;2023-02-20T00:47:57;9.18;;;5.45;;
11447;SDS011;43755;49.736;8.734;2023-02-20T00:49:58;7.75;;;5.32;;
11447;SDS011;43755;49.736;8.734;2023-02-20T00:51:59;9.85;;;6.22;;
11447;SDS011;43755;49.736;8.734;2023-02-20T00:54:01;9.48;;;5.90;;
11447;SDS011;43755;49.736;8.734;2023-02-20T00:56:02;8.35;;;5.80;;
11447;SDS011;43755;49.736;8.734;2023-02-20T00:58:04;8.18;;;5.60;;
11447;SDS011;43755;49.736;8.734;2023-02-20T01:00:06;9.20;;;5.93;;
11447;SDS011;43755;49.736;8.734;2023-02-20T01:02:09;9.10;;;5.80;;
11447;SDS011;43755;49.736;8.734;2023-02-20T01:04:12;9.80;;;6.07;;
11447;SDS011;43755;49.736;8.734;2023-02-20T01:06:13;11.77;;;6.15;;
11447;SDS011;43755;49.736;8.734;2023-02-20T01:08:15;9.27;;;5.75;;
11447;SDS011;43755;49.736;8.734;2023-02-20T01:10:16;9.85;;;5.65;;
11447;SDS011;43755;49.736;8.734;2023-02-20T01:12:18;9.50;;;5.95;;
11447;SDS011;43755;49.736;8.734;2023-02-20T01:14:20;6.22;;;5.32;;
11447;SDS011;43755;49.736;8.734;2023-02-20T01:16:21;7.50;;;5.65;;
11447;SDS011;43755;49.736;8.734;2023-02-20T01:18:23;7.40;;;5.65;;
11447;SDS011;43755;49.736;8.734;2023-02-20T01:20:26;6.80;;;5.40;;
11447;SDS011;43755;49.736;8.734;2023-02-20T01:22:27;6.28;;;5.20;;
11447;SDS011;43755;49.736;8.734;2023-02-20T01:24:29;5.22;;;4.72;;
11447;SDS011;43755;49.736;8.734;2023-02-20T01:26:30;7.32;;;5.53;;
11447;SDS011;43755;49.736;8.734;2023-02-20T01:28:31;6.72;;;5.22;;
11447;SDS011;43755;49.736;8.734;2023-02-20T01:30:33;8.35;;;5.03;;
11447;SDS011;43755;49.736;8.734;2023-02-20T01:32:34;7.53;;;4.93;;
11447;SDS011;43755;49.736;8.734;2023-02-20T01:34:35;9.25;;;5.22;;
11447;SDS011;43755;49.736;8.734;2023-02-20T01:36:43;5.68;;;5.10;;
11447;SDS011;43755;49.736;8.734;2023-02-20T01:38:46;7.10;;;5.40;;
11447;SDS011;43755;49.736;8.734;2023-02-20T01:40:50;5.80;;;5.20;;
11447;SDS011;43755;49.736;8.734;2023-02-20T01:42:51;6.28;;;5.50;;
11447;SDS011;43755;49.736;8.734;2023-02-20T01:44:52;6.50;;;5.78;;
11447;SDS011;43755;49.736;8.734;2023-02-20T01:46:54;6.85;;;5.28;;
11447;SDS011;43755;49.736;8.734;2023-02-20T01:48:57;7.25;;;6.10;;
11447;SDS011;43755;49.736;8.734;2023-02-20T01:51:02;7.35;;;5.85;;
11447;SDS011;43755;49.736;8.734;2023-02-20T01:53:06;6.32;;;5.43;;
11447;SDS011;43755;49.736;8.734;2023-02-20T01:55:11;5.93;;;5.32;;
11447;SDS011;43755;49.736;8.734;2023-02-20T01:57:16;8.13;;;5.60;;
11447;SDS011;43755;49.736;8.734;2023-02-20T01:59:21;8.63;;;5.30;;
11447;SDS011;43755;49.736;8.734;2023-02-20T02:01:24;7.30;;;5.30;;
11447;SDS011;43755;49.736;8.734;2023-02-20T02:03:27;6.97;;;5.55;;
11447;SDS011;43755;49.736;8.734;2023-02-20T02:05:31;8.23;;;5.80;;
11447;SDS011;43755;49.736;8.734;2023-02-20T02:07:34;6.32;;;5.50;;
11447;SDS011;43755;49.736;8.734;2023-02-20T02:09:38;6.55;;;5.25;;
11447;SDS011;43755;49.736;8.734;2023-02-20T02:11:46;7.28;;;5.22;;
11447;SDS011;43755;49.736;8.734;2023-02-20T02:13:49;7.63;;;5.50;;
11447;SDS011;43755;49.736;8.734;2023-02-20T02:15:51;7.65;;;5.47;;
11447;SDS011;43755;49.736;8.734;2023-02-20T02:18:07;7.82;;;5.30;;
11447;SDS011;43755;49.736;8.734;2023-02-20T02:20:26;7.88;;;5.30;;
11447;SDS011;43755;49.736;8.734;2023-02-20T02:25:23;7.97;;;4.90;;
11447;SDS011;43755;49.736;8.734;2023-02-20T02:27:49;6.18;;;5.03;;
11447;SDS011;43755;49.736;8.734;2023-02-20T02:32:56;5.90;;;4.28;;
11447;SDS011;43755;49.736;8.734;2023-02-20T02:35:15;7.25;;;5.13;;
11447;SDS011;43755;49.736;8.734;2023-02-20T02:37:32;8.82;;;4.90;;
11447;SDS011;43755;49.736;8.734;2023-02-20T02:39:43;8.68;;;5.50;;
11447;SDS011;43755;49.736;8.734;2023-02-20T02:41:51;6.57;;;4.97;;
11447;SDS011;43755;49.736;8.734;2023-02-20T02:43:58;6.82;;;5.50;;
11447;SDS011;43755;49.736;8.734;2023-02-20T02:46:05;7.40;;;5.18;;
11447;SDS011;43755;49.736;8.734;2023-02-20T02:48:10;8.38;;;5.53;;
11447;SDS011;43755;49.736;8.734;2023-02-20T02:50:18;9.73;;;5.65;;
11447;SDS011;43755;49.736;8.734;2023-02-20T02:52:23;8.20;;;5.18;;
11447;SDS011;43755;49.736;8.734;2023-02-20T02:54:48;7.93;;;5.32;;
11447;SDS011;43755;49.736;8.734;2023-02-20T02:56:50;6.55;;;5.38;;
11447;SDS011;43755;49.736;8.734;2023-02-20T02:58:52;8.25;;;5.97;;
11447;SDS011;43755;49.736;8.734;2023-02-20T03:00:55;8.77;;;5.55;;
11447;SDS011;43755;49.736;8.734;2023-02-20T03:03:01;8.35;;;5.40;;
11447;SDS011;43755;49.736;8.734;2023-02-20T03:05:08;9.90;;;5.55;;
11447;SDS011;43755;49.736;8.734;2023-02-20T03:07:15;7.53;;;5.30;;
11447;SDS011;43755;49.736;8.734;2023-02-20T03:09:19;6.30;;;4.85;;
11447;SDS011;43755;49.736;8.734;2023-02-20T03:11:26;10.15;;;5.00;;
11447;SDS011;43755;49.736;8.734;2023-02-20T03:13:32;7.18;;;4.72;;
11447;SDS011;43755;49.736;8.734;2023-02-20T03:15:56;6.78;;;5.07;;
11447;SDS011;43755;49.736;8.734;2023-02-20T03:18:01;9.52;;;5.20;;
11447;SDS011;43755;49.736;8.734;2023-02-20T03:20:12;7.28;;;5.00;;
11447;SDS011;43755;49.736;8.734;2023-02-20T03:22:18;8.20;;;4.93;;
11447;SDS011;43755;49.736;8.734;2023-02-20T03:24:23;9.30;;;4.78;;
11447;SDS011;43755;49.736;8.734;2023-02-20T03:26:30;8.48;;;4.80;;
11447;SDS011;43755;49.736;8.734;2023-02-20T03:28:35;7.90;;;5.15;;
11447;SDS011;43755;49.736;8.734;2023-02-20T03:30:42;8.43;;;4.93;;
11447;SDS011;43755;49.736;8.734;2023-02-20T03:32:49;8.50;;;4.72;;
11447;SDS011;43755;49.736;8.734;2023-02-20T03:35:14;8.27;;;4.35;;
11447;SDS011;43755;49.736;8.734;2023-02-20T03:37:33;7.45;;;4.70;;
11447;SDS011;43755;49.736;8.734;2023-02-20T03:39:57;6.00;;;5.03;;
11447;SDS011;43755;49.736;8.734;2023-02-20T03:42:19;7.00;;;4.57;;
11447;SDS011;43755;49.736;8.734;2023-02-20T03:44:39;7.30;;;5.00;;
11447;SDS011;43755;49.736;8.734;2023-02-20T03:46:42;7.50;;;5.03;;
11447;SDS011;43755;49.736;8.734;2023-02-20T03:48:48;11.70;;;5.60;;
11447;SDS011;43755;49.736;8.734;2023-02-20T03:50:53;7.20;;;4.88;;
11447;SDS011;43755;49.736;8.734;2023-02-20T03:53:13;6.93;;;5.45;;
11447;SDS011;43755;49.736;8.734;2023-02-20T03:55:14;10.80;;;5.57;;
11447;SDS011;43755;49.736;8.734;2023-02-20T03:57:16;11.77;;;5.70;;
11447;SDS011;43755;49.736;8.734;2023-02-20T03:59:24;12.25;;;5.93;;
11447;SDS011;43755;49.736;8.734;2023-02-20T04:01:29;9.25;;;5.55;;
11447;SDS011;43755;49.736;8.734;2023-02-20T04:03:35;7.95;;;5.13;;
11447;SDS011;43755;49.736;8.734;2023-02-20T04:05:41;8.43;;;5.38;;
11447;SDS011;43755;49.736;8.734;2023-02-20T04:07:47;8.15;;;5.53;;
11447;SDS011;43755;49.736;8.734;2023-02-20T04:09:53;10.07;;;5.63;;
11447;SDS011;43755;49.736;8.734;2023-02-20T04:12:02;9.07;;;5.63;;
11447;SDS011;43755;49.736;8.734;2023-02-20T04:14:09;9.30;;;5.68;;
11447;SDS011;43755;49.736;8.734;2023-02-20T04:16:12;8.27;;;5.63;;
11447;SDS011;43755;49.736;8.734;2023-02-20T04:18:15;9.10;;;5.40;;
11447;SDS011;43755;49.736;8.734;2023-02-20T04:20:18;8.88;;;6.05;;
11447;SDS011;43755;49.736;8.734;2023-02-20T04:22:21;9.20;;;5.50;;
11447;SDS011;43755;49.736;8.734;2023-02-20T04:24:27;8.38;;;5.55;;
11447;SDS011;43755;49.736;8.734;2023-02-20T04:26:31;10.23;;;5.90;;
11447;SDS011;43755;49.736;8.734;2023-02-20T04:28:34;11.52;;;6.38;;
11447;SDS011;43755;49.736;8.734;2023-02-20T04:30:37;11.00;;;6.10;;
11447;SDS011;43755;49.736;8.734;2023-02-20T04:32:39;10.77;;;5.90;;
11447;SDS011;43755;49.736;8.734;2023-02-20T04:34:41;11.80;;;6.00;;
11447;SDS011;43755;49.736;8.734;2023-02-20T04:36:42;8.93;;;6.03;;
11447;SDS011;43755;49.736;8.734;2023-02-20T04:38:44;9.32;;;6.10;;
11447;SDS011;43755;49.736;8.734;2023-02-20T04:40:45;11.88;;;6.50;;
11447;SDS011;43755;49.736;8.734;2023-02-20T04:42:47;9.73;;;5.80;;
11447;SDS011;43755;49.736;8.734;2023-02-20T04:44:48;9.52;;;6.35;;
11447;SDS011;43755;49.736;8.734;2023-02-20T04:46:51;11.90;;;7.00;;
11447;SDS011;43755;49.736;8.734;2023-02-20T04:48:52;12.25;;;6.95;;
11447;SDS011;43755;49.736;8.734;2023-02-20T04:50:54;9.55;;;6.63;;
11447;SDS011;43755;49.736;8.734;2023-02-20T04:52:55;10.52;;;6.47;;
11447;SDS011;43755;49.736;8.734;2023-02-20T04:54:57;12.15;;;6.90;;
11447;SDS011;43755;49.736;8.734;2023-02-20T04:56:59;11.98;;;6.95;;
11447;SDS011;43755;49.736;8.734;2023-02-20T04:59:00;10.20;;;6.97;;
11447;SDS011;43755;49.736;8.734;2023-02-20T05:01:02;10.85;;;6.78;;
11447;SDS011;43755;49.736;8.734;2023-02-20T05:03:05;10.23;;;6.50;;
11447;SDS011;43755;49.736;8.734;2023-02-20T05:05:06;13.23;;;7.20;;
11447;SDS011;43755;49.736;8.734;2023-02-20T05:07:17;11.90;;;7.05;;
11447;SDS011;43755;49.736;8.734;2023-02-20T05:09:18;11.80;;;6.95;;
11447;SDS011;43755;49.736;8.734;2023-02-20T05:11:21;11.82;;;6.90;;
11447;SDS011;43755;49.736;8.734;2023-02-20T05:13:22;15.82;;;7.35;;
11447;SDS011;43755;49.736;8.734;2023-02-20T05:15:24;11.15;;;6.93;;
11447;SDS011;43755;49.736;8.734;2023-02-20T05:17:26;10.32;;;6.95;;
11447;SDS011;43755;49.736;8.734;2023-02-20T05:19:28;11.07;;;7.10;;
11447;SDS011;43755;49.736;8.734;2023-02-20T05:21:30;9.60;;;6.50;;
11447;SDS011;43755;49.736;8.734;2023-02-20T05:23:49;9.13;;;6.72;;
11447;SDS011;43755;49.736;8.734;2023-02-20T05:25:50;9.43;;;6.82;;
11447;SDS011;43755;49.736;8.734;2023-02-20T05:27:53;16.30;;;7.10;;
11447;SDS011;43755;49.736;8.734;2023-02-20T05:29:56;12.85;;;6.70;;
11447;SDS011;43755;49.736;8.734;2023-02-20T05:31:58;11.80;;;7.18;;
11447;SDS011;43755;49.736;8.734;2023-02-20T05:34:00;12.82;;;6.85;;
11447;SDS011;43755;49.736;8.734;2023-02-20T05:36:03;11.52;;;7.03;;
11447;SDS011;43755;49.736;8.734;2023-02-20T05:38:05;11.25;;;6.68;;
11447;SDS011;43755;49.736;8.734;2023-02-20T05:40:07;11.98;;;6.97;;
11447;SDS011;43755;49.736;8.734;2023-02-20T05:42:09;13.43;;;7.53;;
11447;SDS011;43755;49.736;8.734;2023-02-20T05:44:10;14.35;;;7.50;;
11447;SDS011;43755;49.736;8.734;2023-02-20T05:46:12;12.45;;;7.75;;
11447;SDS011;43755;49.736;8.734;2023-02-20T05:48:13;15.70;;;8.07;;
11447;SDS011;43755;49.736;8.734;2023-02-20T05:50:15;15.18;;;7.22;;
11447;SDS011;43755;49.736;8.734;2023-02-20T05:52:18;12.27;;;7.75;;
11447;SDS011;43755;49.736;8.734;2023-02-20T05:54:19;13.90;;;8.57;;
11447;SDS011;43755;49.736;8.734;2023-02-20T05:56:21;12.52;;;8.13;;
11447;SDS011;43755;49.736;8.734;2023-02-20T05:58:23;15.88;;;7.75;;
11447;SDS011;43755;49.736;8.734;2023-02-20T06:00:25;11.73;;;7.45;;
11447;SDS011;43755;49.736;8.734;2023-02-20T06:02:30;18.80;;;8.10;;
11447;SDS011;43755;49.736;8.734;2023-02-20T06:04:32;13.85;;;7.72;;
11447;SDS011;43755;49.736;8.734;2023-02-20T06:06:35;9.68;;;7.30;;
11447;SDS011;43755;49.736;8.734;2023-02-20T06:08:39;15.32;;;7.72;;
11447;SDS011;43755;49.736;8.734;2023-02-20T06:10:41;14.45;;;7.78;;
11447;SDS011;43755;49.736;8.734;2023-02-20T06:12:42;12.57;;;7.35;;
11447;SDS011;43755;49.736;8.734;2023-02-20T06:14:44;12.38;;;8.20;;
11447;SDS011;43755;49.736;8.734;2023-02-20T06:16:46;15.73;;;7.65;;
11447;SDS011;43755;49.736;8.734;2023-02-20T06:18:47;12.15;;;7.63;;
11447;SDS011;43755;49.736;8.734;2023-02-20T06:20:49;12.10;;;7.93;;
11447;SDS011;43755;49.736;8.734;2023-02-20T06:22:50;16.55;;;7.47;;
11447;SDS011;43755;49.736;8.734;2023-02-20T06:24:53;12.63;;;7.18;;
11447;SDS011;43755;49.736;8.734;2023-02-20T06:26:54;13.73;;;7.13;;
11447;SDS011;43755;49.736;8.734;2023-02-20T06:28:56;16.30;;;8.10;;
11447;SDS011;43755;49.736;8.734;2023-02-20T06:30:57;15.07;;;8.30;;
11447;SDS011;43755;49.736;8.734;2023-02-20T06:32:59;10.77;;;8.10;;
11447;SDS011;43755;49.736;8.734;2023-02-20T06:35:01;15.65;;;7.70;;
11447;SDS011;43755;49.736;8.734;2023-02-20T06:37:02;16.48;;;8.10;;
11447;SDS011;43755;49.736;8.734;2023-02-20T06:39:05;13.82;;;7.70;;
11447;SDS011;43755;49.736;8.734;2023-02-20T06:41:09;12.50;;;7.38;;
11447;SDS011;43755;49.736;8.734;2023-02-20T06:43:11;12.93;;;7.13;;
11447;SDS011;43755;49.736;8.734;2023-02-20T06:45:12;18.30;;;8.30;;
11447;SDS011;43755;49.736;8.734;2023-02-20T06:47:14;13.82;;;7.60;;
11447;SDS011;43755;49.736;8.734;2023-02-20T06:49:15;14.13;;;7.32;;
11447;SDS011;43755;49.736;8.734;2023-02-20T06:51:17;13.90;;;8.18;;
11447;SDS011;43755;49.736;8.734;2023-02-20T06:53:20;10.45;;;7.50;;
11447;SDS011;43755;49.736;8.734;2023-02-20T06:55:21;12.65;;;7.95;;
11447;SDS011;43755;49.736;8.734;2023-02-20T06:57:24;10.85;;;7.05;;
11447;SDS011;43755;49.736;8.734;2023-02-20T06:59:25;13.05;;;7.63;;
11447;SDS011;43755;49.736;8.734;2023-02-20T07:01:27;10.93;;;7.43;;
11447;SDS011;43755;49.736;8.734;2023-02-20T07:03:30;11.75;;;7.18;;
11447;SDS011;43755;49.736;8.734;2023-02-20T07:05:31;9.40;;;7.30;;
11447;SDS011;43755;49.736;8.734;2023-02-20T07:07:33;14.48;;;7.63;;
11447;SDS011;43755;49.736;8.734;2023-02-20T07:09:34;14.50;;;6.97;;
11447;SDS011;43755;49.736;8.734;2023-02-20T07:11:36;10.90;;;7.03;;
11447;SDS011;43755;49.736;8.734;2023-02-20T07:13:39;9.82;;;7.25;;
11447;SDS011;43755;49.736;8.734;2023-02-20T07:15:40;12.07;;;7.40;;
11447;SDS011;43755;49.736;8.734;2023-02-20T07:17:42;13.43;;;7.18;;
11447;SDS011;43755;49.736;8.734;2023-02-20T07:19:43;12.70;;;7.63;;
11447;SDS011;43755;49.736;8.734;2023-02-20T07:21:45;9.23;;;6.68;;
11447;SDS011;43755;49.736;8.734;2023-02-20T07:23:46;14.00;;;6.95;;
11447;SDS011;43755;49.736;8.734;2023-02-20T07:25:48;11.23;;;6.63;;
11447;SDS011;43755;49.736;8.734;2023-02-20T07:27:50;12.55;;;7.35;;
11447;SDS011;43755;49.736;8.734;2023-02-20T07:29:52;10.48;;;6.43;;
11447;SDS011;43755;49.736;8.734;2023-02-20T07:31:54;9.77;;;6.78;;
11447;SDS011;43755;49.736;8.734;2023-02-20T07:33:55;12.05;;;6.95;;
11447;SDS011;43755;49.736;8.734;2023-02-20T07:35:57;10.68;;;6.82;;
11447;SDS011;43755;49.736;8.734;2023-02-20T07:37:59;10.18;;;6.35;;
11447;SDS011;43755;49.736;8.734;2023-02-20T07:40:00;9.15;;;5.85;;
11447;SDS011;43755;49.736;8.734;2023-02-20T07:42:02;14.98;;;6.63;;
11447;SDS011;43755;49.736;8.734;2023-02-20T07:44:03;10.18;;;5.90;;
11447;SDS011;43755;49.736;8.734;2023-02-20T07:46:06;9.13;;;6.03;;
11447;SDS011;43755;49.736;8.734;2023-02-20T07:48:08;12.27;;;6.00;;
11447;SDS011;43755;49.736;8.734;2023-02-20T07:50:09;9.05;;;6.25;;
11447;SDS011;43755;49.736;8.734;2023-02-20T07:52:11;11.30;;;6.50;;
11447;SDS011;43755;49.736;8.734;2023-02-20T07:54:12;10.93;;;6.38;;
11447;SDS011;43755;49.736;8.734;2023-02-20T07:56:13;12.10;;;5.90;;
11447;SDS011;43755;49.736;8.734;2023-02-20T07:58:15;9.45;;;5.53;;
11447;SDS011;43755;49.736;8.734;2023-02-20T08:00:17;9.95;;;5.80;;
11447;SDS011;43755;49.736;8.734;2023-02-20T08:02:24;11.40;;;5.32;;
11447;SDS011;43755;49.736;8.734;2023-02-20T08:04:25;11.30;;;5.35;;
11447;SDS011;43755;49.736;8.734;2023-02-20T08:06:27;9.10;;;5.28;;
11447;SDS011;43755;49.736;8.734;2023-02-20T08:08:28;10.05;;;5.38;;
11447;SDS011;43755;49.736;8.734;2023-02-20T08:10:30;7.55;;;5.20;;
11447;SDS011;43755;49.736;8.734;2023-02-20T08:12:31;7.78;;;5.00;;
11447;SDS011;43755;49.736;8.734;2023-02-20T08:14:32;9.95;;;5.22;;
11447;SDS011;43755;49.736;8.734;2023-02-20T08:16:34;8.25;;;4.72;;
11447;SDS011;43755;49.736;8.734;2023-02-20T08:18:37;8.63;;;4.60;;
11447;SDS011;43755;49.736;8.734;2023-02-20T08:20:38;9.00;;;5.10;;
11447;SDS011;43755;49.736;8.734;2023-02-20T08:22:40;9.55;;;4.90;;
11447;SDS011;43755;49.736;8.734;2023-02-20T08:24:43;7.43;;;5.03;;
11447;SDS011;43755;49.736;8.734;2023-02-20T08:26:45;8.32;;;4.60;;
11447;SDS011;43755;49.736;8.734;2023-02-20T08:28:47;7.90;;;4.90;;
11447;SDS011;43755;49.736;8.734;2023-02-20T08:30:49;10.20;;;4.90;;
11447;SDS011;43755;49.736;8.734;2023-02-20T08:32:52;10.27;;;4.95;;
11447;SDS011;43755;49.736;8.734;2023-02-20T08:34:55;7.25;;;5.35;;
11447;SDS011;43755;49.736;8.734;2023-02-20T08:36:56;8.73;;;5.15;;
11447;SDS011;43755;49.736;8.734;2023-02-20T08:38:57;8.77;;;5.40;;
11447;SDS011;43755;49.736;8.734;2023-02-20T08:41:01;9.23;;;5.85;;
11447;SDS011;43755;49.736;8.734;2023-02-20T08:43:04;10.05;;;5.70;;
11447;SDS011;43755;49.736;8.734;2023-02-20T08:45:06;13.10;;;5.78;;
11447;SDS011;43755;49.736;8.734;2023-02-20T08:47:08;10.60;;;5.68;;
11447;SDS011;43755;49.736;8.734;2023-02-20T08:49:10;11.70;;;6.05;;
11447;SDS011;43755;49.736;8.734;2023-02-20T08:51:16;8.80;;;5.30;;
11447;SDS011;43755;49.736;8.734;2023-02-20T08:53:19;10.18;;;6.03;;
11447;SDS011;43755;49.736;8.734;2023-02-20T08:55:20;10.23;;;5.80;;
11447;SDS011;43755;49.736;8.734;2023-02-20T08:57:22;9.57;;;5.75;;
11447;SDS011;43755;49.736;8.734;2023-02-20T08:59:23;9.50;;;5.72;;
11447;SDS011;43755;49.736;8.734;2023-02-20T09:01:25;9.18;;;6.15;;
11447;SDS011;43755;49.736;8.734;2023-02-20T09:03:26;14.30;;;6.20;;
11447;SDS011;43755;49.736;8.734;2023-02-20T09:05:28;12.52;;;5.93;;
11447;SDS011;43755;49.736;8.734;2023-02-20T09:07:31;10.73;;;5.90;;
11447;SDS011;43755;49.736;8.734;2023-02-20T09:09:32;13.45;;;5.82;;
11447;SDS011;43755;49.736;8.734;2023-02-20T09:11:33;12.52;;;6.28;;
11447;SDS011;43755;49.736;8.734;2023-02-20T09:13:40;9.32;;;6.20;;
11447;SDS011;43755;49.736;8.734;2023-02-20T09:15:42;9.13;;;5.65;;
11447;SDS011;43755;49.736;8.734;2023-02-20T09:17:43;8.13;;;5.80;;
11447;SDS011;43755;49.736;8.734;2023-02-20T09:19:45;12.23;;;6.65;;
11447;SDS011;43755;49.736;8.734;2023-02-20T09:21:46;10.80;;;5.70;;
11447;SDS011;43755;49.736;8.734;2023-02-20T09:23:49;14.68;;;6.95;;
11447;SDS011;43755;49.736;8.734;2023-02-20T09:25:51;13.32;;;6.75;;
11447;SDS011;43755;49.736;8.734;2023-02-20T09:27:52;10.77;;;7.00;;
11447;SDS011;43755;49.736;8.734;2023-02-20T09:29:54;14.23;;;7.18;;
11447;SDS011;43755;49.736;8.734;2023-02-20T09:31:55;11.13;;;7.05;;
11447;SDS011;43755;49.736;8.734;2023-02-20T09:33:57;13.95;;;7.45;;
11447;SDS011;43755;49.736;8.734;2023-02-20T09:35:59;11.70;;;7.07;;
11447;SDS011;43755;49.736;8.734;2023-02-20T09:38:01;16.35;;;6.80;;
11447;SDS011;43755;49.736;8.734;2023-02-20T09:40:04;11.57;;;6.90;;
11447;SDS011;43755;49.736;8.734;2023-02-20T09:42:10;12.15;;;7.55;;
11447;SDS011;43755;49.736;8.734;2023-02-20T09:44:20;12.60;;;7.10;;
11447;SDS011;43755;49.736;8.734;2023-02-20T09:46:28;11.52;;;7.45;;
11447;SDS011;43755;49.736;8.734;2023-02-20T09:48:33;9.43;;;7.22;;
11447;SDS011;43755;49.736;8.734;2023-02-20T09:50:43;12.68;;;7.68;;
11447;SDS011;43755;49.736;8.734;2023-02-20T09:52:50;11.32;;;7.13;;
11447;SDS011;43755;49.736;8.734;2023-02-20T09:55:00;12.80;;;7.50;;
11447;SDS011;43755;49.736;8.734;2023-02-20T09:57:08;13.40;;;7.68;;
11447;SDS011;43755;49.736;8.734;2023-02-20T09:59:14;10.55;;;7.50;;
11447;SDS011;43755;49.736;8.734;2023-02-20T10:01:19;12.52;;;8.05;;
11447;SDS011;43755;49.736;8.734;2023-02-20T10:03:24;11.63;;;8.02;;
11447;SDS011;43755;49.736;8.734;2023-02-20T10:05:33;12.38;;;7.72;;
11447;SDS011;43755;49.736;8.734;2023-02-20T10:07:37;16.23;;;8.10;;
11447;SDS011;43755;49.736;8.734;2023-02-20T10:09:41;11.60;;;8.18;;
11447;SDS011;43755;49.736;8.734;2023-02-20T10:11:45;12.30;;;7.78;;
11447;SDS011;43755;49.736;8.734;2023-02-20T10:13:56;13.50;;;7.90;;
11447;SDS011;43755;49.736;8.734;2023-02-20T10:16:15;14.25;;;7.95;;
11447;SDS011;43755;49.736;8.734;2023-02-20T10:18:27;12.75;;;7.85;;
11447;SDS011;43755;49.736;8.734;2023-02-20T10:20:37;13.95;;;7.72;;
11447;SDS011;43755;49.736;8.734;2023-02-20T10:22:51;10.20;;;6.90;;
11447;SDS011;43755;49.736;8.734;2023-02-20T10:25:00;14.45;;;7.88;;
11447;SDS011;43755;49.736;8.734;2023-02-20T10:27:15;11.80;;;7.93;;
11447;SDS011;43755;49.736;8.734;2023-02-20T10:29:27;13.48;;;7.45;;
11447;SDS011;43755;49.736;8.734;2023-02-20T10:31:35;12.20;;;6.75;;
11447;SDS011;43755;49.736;8.734;2023-02-20T10:33:42;13.40;;;7.50;;
11447;SDS011;43755;49.736;8.734;2023-02-20T10:35:48;11.95;;;6.88;;
11447;SDS011;43755;49.736;8.734;2023-02-20T10:37:54;13.45;;;7.63;;
11447;SDS011;43755;49.736;8.734;2023-02-20T10:39:59;10.32;;;7.45;;
11447;SDS011;43755;49.736;8.734;2023-02-20T10:42:08;10.82;;;6.65;;
11447;SDS011;43755;49.736;8.734;2023-02-20T10:44:15;14.85;;;7.30;;
11447;SDS011;43755;49.736;8.734;2023-02-20T10:46:28;11.80;;;6.72;;
11447;SDS011;43755;49.736;8.734;2023-02-20T10:48:33;12.93;;;6.43;;
11447;SDS011;43755;49.736;8.734;2023-02-20T10:50:37;12.60;;;7.13;;
11447;SDS011;43755;49.736;8.734;2023-02-20T10:52:45;13.13;;;6.60;;
11447;SDS011;43755;49.736;8.734;2023-02-20T10:54:53;11.68;;;6.25;;
11447;SDS011;43755;49.736;8.734;2023-02-20T10:56:59;10.95;;;6.93;;
11447;SDS011;43755;49.736;8.734;2023-02-20T10:59:07;11.32;;;6.50;;
11447;SDS011;43755;49.736;8.734;2023-02-20T11:01:17;15.05;;;7.30;;
11447;SDS011;43755;49.736;8.734;2023-02-20T11:03:23;10.05;;;6.68;;
11447;SDS011;43755;49.736;8.734;2023-02-20T11:05:30;10.52;;;6.55;;
11447;SDS011;43755;49.736;8.734;2023-02-20T11:07:37;11.10;;;6.32;;
11447;SDS011;43755;49.736;8.734;2023-02-20T11:09:38;13.18;;;6.55;;
11447;SDS011;43755;49.736;8.734;2023-02-20T11:11:41;10.75;;;6.55;;
11447;SDS011;43755;49.736;8.734;2023-02-20T11:13:44;13.40;;;6.75;;
11447;SDS011;43755;49.736;8.734;2023-02-20T11:15:45;10.07;;;6.40;;
11447;SDS011;43755;49.736;8.734;2023-02-20T11:17:50;10.55;;;7.03;;
11447;SDS011;43755;49.736;8.734;2023-02-20T11:19:55;12.00;;;6.18;;
11447;SDS011;43755;49.736;8.734;2023-02-20T11:21:59;11.82;;;6.55;;
11447;SDS011;43755;49.736;8.734;2023-02-20T11:24:08;12.00;;;6.63;;
11447;SDS011;43755;49.736;8.734;2023-02-20T11:26:27;10.98;;;6.50;;
11447;SDS011;43755;49.736;8.734;2023-02-20T11:28:31;11.48;;;6.65;;
11447;SDS011;43755;49.736;8.734;2023-02-20T11:30:35;12.00;;;6.68;;
11447;SDS011;43755;49.736;8.734;2023-02-20T11:32:39;10.18;;;5.63;;
11447;SDS011;43755;49.736;8.734;2023-02-20T11:34:42;9.45;;;6.07;;
11447;SDS011;43755;49.736;8.734;2023-02-20T11:36:45;11.90;;;6.63;;
11447;SDS011;43755;49.736;8.734;2023-02-20T11:38:55;11.23;;;6.18;;
11447;SDS011;43755;49.736;8.734;2023-02-20T11:41:21;11.93;;;6.50;;
11447;SDS011;43755;49.736;8.734;2023-02-20T11:43:27;9.70;;;6.50;;
11447;SDS011;43755;49.736;8.734;2023-02-20T11:45:32;13.77;;;6.85;;
11447;SDS011;43755;49.736;8.734;2023-02-20T11:47:33;12.25;;;6.60;;
11447;SDS011;43755;49.736;8.734;2023-02-20T11:49:35;9.32;;;6.13;;
11447;SDS011;43755;49.736;8.734;2023-02-20T11:51:38;10.20;;;6.00;;
11447;SDS011;43755;49.736;8.734;2023-02-20T11:53:41;9.07;;;6.30;;
11447;SDS011;43755;49.736;8.734;2023-02-20T11:55:43;11.10;;;5.88;;
11447;SDS011;43755;49.736;8.734;2023-02-20T11:57:45;12.35;;;5.90;;
11447;SDS011;43755;49.736;8.734;2023-02-20T11:59:47;10.77;;;5.85;;
11447;SDS011;43755;49.736;8.734;2023-02-20T12:01:50;10.20;;;6.05;;
11447;SDS011;43755;49.736;8.734;2023-02-20T12:03:53;10.80;;;5.80;;
11447;SDS011;43755;49.736;8.734;2023-02-20T12:05:55;9.13;;;5.32;;
11447;SDS011;43755;49.736;8.734;2023-02-20T12:07:58;9.27;;;5.20;;
11447;SDS011;43755;49.736;8.734;2023-02-20T12:10:02;9.30;;;4.75;;
11447;SDS011;43755;49.736;8.734;2023-02-20T12:12:14;9.27;;;4.55;;
11447;SDS011;43755;49.736;8.734;2023-02-20T12:14:15;6.78;;;4.10;;
11447;SDS011;43755;49.736;8.734;2023-02-20T12:16:28;5.85;;;3.70;;
11447;SDS011;43755;49.736;8.734;2023-02-20T12:18:41;6.43;;;4.30;;
11447;SDS011;43755;49.736;8.734;2023-02-20T12:20:51;7.38;;;4.00;;
11447;SDS011;43755;49.736;8.734;2023-02-20T12:23:03;8.13;;;4.90;;
11447;SDS011;43755;49.736;8.734;2023-02-20T12:25:19;6.82;;;4.57;;
11447;SDS011;43755;49.736;8.734;2023-02-20T12:27:32;9.88;;;5.30;;
11447;SDS011;43755;49.736;8.734;2023-02-20T12:29:45;7.05;;;4.60;;